Time;durP1;ratioP1;P1;durP2;ratioP2;P2;SDS_P1;SDS_P2;PMS_P1;PMS_P2;Temp;Humidity;BMP_temperature;BMP_pressure;BME280_temperature;BME280_humidity;BME280_pressure;Samples;Min_cycle;Max_cycle;Signal;HPM_P1;HPM_P2
2023/08/09 00:02:07;;;;;;;2.75;1.00;;;18.50;58.10;;;;;;5062350;28;20024;-62
2023/08/09 00:04:32;;;;;;;1.17;1.08;;;18.50;58.10;;;;;;5058785;28;20040;-62
2023/08/09 00:06:58;;;;;;;1.88;1.13;;;18.50;58.10;;;;;;5060447;28;20056;-63
2023/08/09 00:09:24;;;;;;;1.30;1.20;;;18.50;58.00;;;;;;5066743;28;20509;-63
2023/08/09 00:11:50;;;;;;;1.95;1.05;;;18.50;58.10;;;;;;5072238;28;20034;-61
2023/08/09 00:14:15;;;;;;;2.38;1.05;;;18.50;58.00;;;;;;5066829;28;20029;-62
2023/08/09 00:16:41;;;;;;;2.50;1.30;;;18.40;58.00;;;;;;5073080;28;20467;-61
2023/08/09 00:19:07;;;;;;;2.92;1.25;;;18.50;58.20;;;;;;5065199;28;20026;-62
2023/08/09 00:21:32;;;;;;;3.85;1.50;;;18.40;58.30;;;;;;5073501;28;20028;-62
2023/08/09 00:23:58;;;;;;;3.78;1.50;;;18.40;58.10;;;;;;5064323;28;20111;-61
2023/08/09 00:26:25;;;;;;;3.38;1.30;;;18.40;57.80;;;;;;5073292;28;20029;-63
2023/08/09 00:28:52;;;;;;;1.80;1.35;;;18.40;57.70;;;;;;5060240;28;20052;-62
2023/08/09 00:31:18;;;;;;;1.95;1.20;;;18.40;57.60;;;;;;5068767;28;20020;-62
2023/08/09 00:33:44;;;;;;;1.40;0.98;;;18.40;57.40;;;;;;5067522;28;20115;-62
2023/08/09 00:36:10;;;;;;;3.20;1.52;;;18.40;57.40;;;;;;5067163;28;20035;-62
2023/08/09 00:38:36;;;;;;;5.28;1.48;;;18.40;57.40;;;;;;5067748;28;20386;-62
2023/08/09 00:41:02;;;;;;;2.28;1.40;;;18.40;57.20;;;;;;5061129;28;20041;-62
2023/08/09 00:43:28;;;;;;;1.63;1.40;;;18.50;57.50;;;;;;5065087;28;20115;-62
2023/08/09 00:45:54;;;;;;;3.65;1.60;;;18.40;58.00;;;;;;5063428;28;20479;-62
2023/08/09 00:48:20;;;;;;;2.35;1.33;;;18.40;57.80;;;;;;5054880;28;20089;-62
2023/08/09 00:50:46;;;;;;;2.55;1.48;;;18.40;57.90;;;;;;5059430;28;20144;-61
2023/08/09 00:53:12;;;;;;;3.72;1.40;;;18.40;58.10;;;;;;5058860;28;20021;-62
2023/08/09 00:55:39;;;;;;;2.70;1.50;;;18.30;58.00;;;;;;5069718;28;20037;-62
2023/08/09 00:58:05;;;;;;;3.60;1.52;;;18.30;58.40;;;;;;5060283;28;20008;-63
2023/08/09 01:00:31;;;;;;;2.33;1.45;;;18.20;58.30;;;;;;5063849;28;20062;-61
2023/08/09 01:02:58;;;;;;;2.03;1.30;;;18.20;58.60;;;;;;5071639;28;20483;-62
2023/08/09 01:05:29;;;;;;;4.38;1.70;;;18.20;58.70;;;;;;5065913;28;20024;-62
2023/08/09 01:08:12;;;;;;;1.85;1.38;;;18.10;59.00;;;;;;5064355;28;20044;-62
2023/08/09 01:10:46;;;;;;;2.30;1.20;;;18.10;59.80;;;;;;5061530;28;20024;-62
2023/08/09 01:13:14;;;;;;;2.05;1.27;;;18.10;59.30;;;;;;5063404;28;20476;-61
2023/08/09 01:15:42;;;;;;;2.67;1.40;;;18.00;59.30;;;;;;5061714;28;20479;-62
2023/08/09 01:18:08;;;;;;;2.70;1.52;;;18.00;59.40;;;;;;5070916;28;20360;-61
2023/08/09 01:20:36;;;;;;;2.53;1.20;;;18.00;59.50;;;;;;5061348;28;20127;-62
2023/08/09 01:23:03;;;;;;;2.15;1.00;;;18.00;59.70;;;;;;5071925;28;20069;-61
2023/08/09 01:25:31;;;;;;;2.25;1.20;;;18.00;59.90;;;;;;5068426;28;20492;-61
2023/08/09 01:27:58;;;;;;;4.50;1.50;;;18.00;60.00;;;;;;5061791;28;20384;-62
2023/08/09 01:30:23;;;;;;;1.60;1.30;;;18.00;59.90;;;;;;5065193;28;20111;-62
2023/08/09 01:32:49;;;;;;;3.08;1.40;;;18.00;60.10;;;;;;5060742;28;20649;-61
2023/08/09 01:35:16;;;;;;;2.53;1.63;;;18.00;60.10;;;;;;5061831;28;20048;-61
2023/08/09 01:37:45;;;;;;;2.45;1.40;;;18.00;60.20;;;;;;5052993;28;20518;-62
2023/08/09 01:40:12;;;;;;;2.25;1.42;;;17.90;60.20;;;;;;5059707;28;20044;-63
2023/08/09 01:42:39;;;;;;;1.40;1.13;;;17.90;60.30;;;;;;5061545;28;20025;-63
2023/08/09 01:45:06;;;;;;;3.80;1.50;;;17.90;60.30;;;;;;5067067;28;20073;-63
2023/08/09 01:47:32;;;;;;;3.67;1.58;;;17.90;60.40;;;;;;5063952;28;20020;-63
2023/08/09 01:49:58;;;;;;;1.73;1.45;;;17.90;60.30;;;;;;5059476;28;20108;-63
2023/08/09 01:52:24;;;;;;;1.38;1.20;;;17.90;60.60;;;;;;5066387;28;20166;-63
2023/08/09 01:54:50;;;;;;;1.65;1.30;;;17.90;60.80;;;;;;5063658;28;20510;-63
2023/08/09 01:57:15;;;;;;;3.33;1.38;;;17.90;60.80;;;;;;5064926;28;20020;-62
2023/08/09 01:59:42;;;;;;;2.58;1.40;;;17.90;60.90;;;;;;5060618;28;20020;-62
2023/08/09 02:02:08;;;;;;;4.22;1.15;;;17.90;61.00;;;;;;5054716;28;20025;-61
2023/08/09 02:04:34;;;;;;;2.47;1.52;;;17.90;61.00;;;;;;5068198;28;22117;-64
2023/08/09 02:07:00;;;;;;;3.05;1.38;;;17.90;61.30;;;;;;5057279;28;20402;-62
2023/08/09 02:09:28;;;;;;;1.60;1.38;;;17.90;61.30;;;;;;5063644;28;20044;-63
2023/08/09 02:11:54;;;;;;;3.30;1.35;;;18.00;61.40;;;;;;5063323;28;20036;-63
2023/08/09 02:14:20;;;;;;;2.15;1.30;;;18.00;61.40;;;;;;5058580;28;20029;-63
2023/08/09 02:16:46;;;;;;;2.75;1.13;;;18.00;61.50;;;;;;5062402;28;20028;-63
2023/08/09 02:19:12;;;;;;;1.85;1.55;;;18.00;61.60;;;;;;5063077;28;20025;-62
2023/08/09 02:21:39;;;;;;;2.85;1.50;;;18.00;61.60;;;;;;5069547;28;20028;-62
2023/08/09 02:24:06;;;;;;;2.08;1.30;;;18.00;61.80;;;;;;5065803;28;20025;-63
2023/08/09 02:26:33;;;;;;;2.38;1.52;;;18.00;62.00;;;;;;5069977;28;20033;-62
2023/08/09 02:29:00;;;;;;;2.80;1.35;;;18.00;62.00;;;;;;5069437;28;20575;-64
2023/08/09 02:31:27;;;;;;;1.98;1.33;;;18.00;62.10;;;;;;4974808;28;20107;-62
2023/08/09 02:33:54;;;;;;;2.38;1.25;;;18.00;62.20;;;;;;5059827;28;20443;-63
2023/08/09 02:36:19;;;;;;;3.25;1.30;;;18.00;62.40;;;;;;5059684;28;20367;-62
2023/08/09 02:38:45;;;;;;;1.55;1.30;;;18.00;62.50;;;;;;5069852;28;20028;-63
2023/08/09 02:41:11;;;;;;;3.63;1.40;;;18.00;62.60;;;;;;5061458;28;20042;-62
2023/08/09 02:43:36;;;;;;;4.72;1.48;;;18.00;62.80;;;;;;5064271;28;20127;-62
2023/08/09 02:46:04;;;;;;;1.88;1.20;;;18.00;62.90;;;;;;5067635;28;20100;-62
2023/08/09 02:48:30;;;;;;;2.58;1.42;;;18.00;63.10;;;;;;5069658;28;20037;-62
2023/08/09 02:50:56;;;;;;;1.50;1.40;;;18.00;63.30;;;;;;5061391;28;20115;-62
2023/08/09 02:53:27;;;;;;;4.50;1.50;;;18.00;63.30;;;;;;5069647;28;20106;-62
2023/08/09 02:55:52;;;;;;;1.90;1.42;;;18.00;63.80;;;;;;5066679;28;20609;-62
2023/08/09 02:58:18;;;;;;;3.22;1.30;;;18.00;63.30;;;;;;5061472;28;20035;-61
2023/08/09 03:00:43;;;;;;;4.38;1.38;;;18.00;63.50;;;;;;5061210;28;20036;-62
2023/08/09 03:03:09;;;;;;;2.67;1.48;;;18.00;63.70;;;;;;5061923;28;20020;-63
2023/08/09 03:05:35;;;;;;;3.10;1.58;;;18.00;63.60;;;;;;5066350;28;20075;-63
2023/08/09 03:08:00;;;;;;;2.13;1.20;;;18.00;63.70;;;;;;5064926;28;20072;-63
2023/08/09 03:10:26;;;;;;;2.47;1.20;;;18.00;63.70;;;;;;5069377;28;20063;-63
2023/08/09 03:12:52;;;;;;;1.40;1.30;;;17.90;63.70;;;;;;5074654;28;20098;-62
2023/08/09 03:15:18;;;;;;;2.55;1.40;;;17.90;63.70;;;;;;5065744;28;20025;-63
2023/08/09 03:17:43;;;;;;;1.70;1.30;;;17.90;63.50;;;;;;5063262;28;20036;-62
2023/08/09 03:20:13;;;;;;;2.45;1.55;;;17.90;63.30;;;;;;5064331;28;20090;-61
2023/08/09 03:22:40;;;;;;;1.75;1.20;;;17.90;63.10;;;;;;5066116;28;20464;-63
2023/08/09 03:25:06;;;;;;;1.75;1.15;;;17.90;63.30;;;;;;5061988;28;20028;-61
2023/08/09 03:27:32;;;;;;;4.25;1.30;;;17.90;63.30;;;;;;5060676;28;20388;-62
2023/08/09 03:29:58;;;;;;;2.75;1.40;;;17.90;63.50;;;;;;5065126;28;20072;-62
2023/08/09 03:32:23;;;;;;;2.35;1.33;;;17.90;63.70;;;;;;4967090;28;20056;-61
2023/08/09 03:34:49;;;;;;;2.47;1.45;;;17.90;63.80;;;;;;5061922;28;20056;-62
2023/08/09 03:37:15;;;;;;;2.95;1.25;;;17.90;63.80;;;;;;5066610;28;20029;-63
2023/08/09 03:39:41;;;;;;;1.58;1.05;;;17.90;63.90;;;;;;5065266;28;20028;-63
2023/08/09 03:42:07;;;;;;;1.83;1.20;;;17.90;64.00;;;;;;5050874;28;20094;-62
2023/08/09 03:44:32;;;;;;;1.23;1.13;;;17.90;63.90;;;;;;5065717;28;20036;-62
2023/08/09 03:46:58;;;;;;;1.75;1.42;;;17.90;64.10;;;;;;5054007;28;20458;-61
2023/08/09 03:49:24;;;;;;;3.50;1.33;;;17.90;64.30;;;;;;5063744;28;20094;-63
2023/08/09 03:51:49;;;;;;;1.40;1.30;;;17.90;64.40;;;;;;5070626;28;20037;-63
2023/08/09 03:54:15;;;;;;;2.22;1.38;;;17.90;64.50;;;;;;5061663;28;20016;-63
2023/08/09 03:56:41;;;;;;;2.35;1.30;;;17.90;64.40;;;;;;5069889;28;20043;-62
2023/08/09 03:59:07;;;;;;;3.35;1.58;;;17.90;64.50;;;;;;5066750;28;20037;-61
2023/08/09 04:01:33;;;;;;;3.83;1.25;;;17.90;64.50;;;;;;5064026;28;20024;-62
2023/08/09 04:03:59;;;;;;;3.83;1.40;;;17.90;64.60;;;;;;5069437;28;20680;-61
2023/08/09 04:06:25;;;;;;;2.10;1.40;;;17.90;64.70;;;;;;5063043;28;20029;-62
2023/08/09 04:08:51;;;;;;;2.17;1.30;;;17.90;64.90;;;;;;5068075;28;20404;-62
2023/08/09 04:11:16;;;;;;;1.77;1.38;;;17.90;64.90;;;;;;5067891;28;20027;-62
2023/08/09 04:13:42;;;;;;;3.33;1.52;;;17.90;64.80;;;;;;5059770;28;20024;-62
2023/08/09 04:16:08;;;;;;;1.33;1.17;;;17.90;64.80;;;;;;5065032;28;20039;-60
2023/08/09 04:18:34;;;;;;;1.67;1.10;;;17.90;65.00;;;;;;5064640;28;20020;-60
2023/08/09 04:21:00;;;;;;;2.85;1.60;;;17.90;64.90;;;;;;5071997;28;20506;-61
2023/08/09 04:23:25;;;;;;;1.55;1.27;;;17.90;64.90;;;;;;5060060;28;20025;-61
2023/08/09 04:25:51;;;;;;;2.90;1.60;;;17.90;64.90;;;;;;5065436;28;20040;-62
2023/08/09 04:28:17;;;;;;;2.47;1.88;;;17.90;65.00;;;;;;5070799;28;20114;-61
2023/08/09 04:30:42;;;;;;;6.90;1.90;;;17.80;65.00;;;;;;5071347;28;20024;-63
2023/08/09 04:33:08;;;;;;;2.38;1.50;;;17.80;65.20;;;;;;5062461;28;20021;-62
2023/08/09 04:35:35;;;;;;;2.80;1.33;;;18.00;65.40;;;;;;5063564;28;20025;-61
2023/08/09 04:38:03;;;;;;;1.88;1.38;;;17.80;65.40;;;;;;5063961;28;20029;-61
2023/08/09 04:40:34;;;;;;;3.05;1.45;;;17.80;65.20;;;;;;5067710;28;20024;-61
2023/08/09 04:43:00;;;;;;;2.15;1.20;;;17.80;65.10;;;;;;5068024;28;20028;-62
2023/08/09 04:45:26;;;;;;;3.95;1.23;;;17.80;65.40;;;;;;5063550;28;20122;-63
2023/08/09 04:47:52;;;;;;;1.92;1.02;;;17.80;65.10;;;;;;5064423;28;20084;-63
2023/08/09 04:50:20;;;;;;;1.58;1.35;;;17.80;65.10;;;;;;5065390;28;20059;-61
2023/08/09 04:52:46;;;;;;;1.42;1.25;;;17.70;65.20;;;;;;5058952;28;20024;-62
2023/08/09 04:55:12;;;;;;;2.10;1.45;;;17.70;65.30;;;;;;5068276;28;20025;-62
2023/08/09 04:57:38;;;;;;;4.05;1.23;;;17.70;65.30;;;;;;5071449;28;20451;-62
2023/08/09 05:00:08;;;;;;;3.45;1.23;;;17.70;65.20;;;;;;5070884;28;20028;-62
2023/08/09 05:02:36;;;;;;;3.58;1.40;;;17.70;65.30;;;;;;5064765;28;21231;-61
2023/08/09 05:05:03;;;;;;;2.05;1.27;;;17.70;65.30;;;;;;5069412;28;20508;-61
2023/08/09 05:07:29;;;;;;;1.58;1.48;;;17.70;65.30;;;;;;5074020;28;20024;-62
2023/08/09 05:09:55;;;;;;;2.33;1.48;;;17.70;65.20;;;;;;5071045;28;20044;-61
2023/08/09 05:12:20;;;;;;;4.22;1.25;;;17.70;65.20;;;;;;5062716;28;20048;-63
2023/08/09 05:14:46;;;;;;;2.47;1.25;;;17.70;65.10;;;;;;5068202;28;20043;-62
2023/08/09 05:17:12;;;;;;;3.22;1.20;;;17.60;65.20;;;;;;5067143;28;20166;-62
2023/08/09 05:19:38;;;;;;;5.25;1.40;;;17.80;65.60;;;;;;5068878;28;20036;-64
2023/08/09 05:22:03;;;;;;;4.55;1.20;;;17.60;65.50;;;;;;5057586;28;20082;-61
2023/08/09 05:24:29;;;;;;;2.25;1.23;;;17.60;65.60;;;;;;5056887;28;20040;-62
2023/08/09 05:26:54;;;;;;;4.45;1.10;;;17.70;66.10;;;;;;5063568;28;20041;-64
2023/08/09 05:29:20;;;;;;;2.83;1.40;;;17.70;65.70;;;;;;5060917;28;20064;-61
2023/08/09 05:31:46;;;;;;;4.07;1.17;;;17.70;66.30;;;;;;5066946;28;20344;-62
2023/08/09 05:34:11;;;;;;;2.30;1.40;;;17.70;65.50;;;;;;5064638;28;20025;-61
2023/08/09 05:36:37;;;;;;;1.88;1.10;;;17.70;65.70;;;;;;5071458;28;20081;-62
2023/08/09 05:39:03;;;;;;;1.60;1.17;;;17.80;66.00;;;;;;5067303;28;20036;-62
2023/08/09 05:41:29;;;;;;;3.80;1.30;;;17.70;65.60;;;;;;5066539;28;20028;-61
2023/08/09 05:43:54;;;;;;;1.90;1.30;;;17.80;65.40;;;;;;5065892;28;20033;-61
2023/08/09 05:46:20;;;;;;;3.15;1.30;;;17.80;65.50;;;;;;5065503;28;20021;-61
2023/08/09 05:48:46;;;;;;;2.47;1.60;;;17.80;65.50;;;;;;5064088;28;20060;-64
2023/08/09 05:51:11;;;;;;;4.10;1.45;;;17.80;65.40;;;;;;5076908;28;20035;-63
2023/08/09 05:53:37;;;;;;;3.30;1.27;;;17.80;65.20;;;;;;5078646;28;20036;-61
2023/08/09 05:56:03;;;;;;;4.13;1.40;;;17.80;65.40;;;;;;5063117;28;20161;-62
2023/08/09 05:58:29;;;;;;;4.32;1.40;;;17.80;65.50;;;;;;5077682;28;20040;-61
2023/08/09 06:00:54;;;;;;;3.97;1.45;;;17.70;65.50;;;;;;5067574;28;20024;-62
2023/08/09 06:03:20;;;;;;;4.07;1.25;;;17.70;65.30;;;;;;5061644;28;20035;-62
2023/08/09 06:05:46;;;;;;;3.60;1.58;;;17.70;65.50;;;;;;5058556;28;20032;-62
2023/08/09 06:08:11;;;;;;;3.30;1.48;;;17.80;65.60;;;;;;5070270;28;20045;-61
2023/08/09 06:10:37;;;;;;;2.90;1.50;;;17.80;65.60;;;;;;5071208;28;20108;-62
2023/08/09 06:13:03;;;;;;;1.65;1.10;;;17.80;65.70;;;;;;5066768;28;20025;-62
2023/08/09 06:15:29;;;;;;;4.43;1.27;;;17.80;65.60;;;;;;5054843;28;20024;-61
2023/08/09 06:17:54;;;;;;;3.63;1.45;;;17.90;65.50;;;;;;5067198;28;20480;-62
2023/08/09 06:20:21;;;;;;;2.17;1.42;;;17.90;65.60;;;;;;5066210;28;20024;-62
2023/08/09 06:22:48;;;;;;;1.42;1.30;;;17.90;65.60;;;;;;5068612;28;20055;-61
2023/08/09 06:25:14;;;;;;;5.43;1.65;;;17.90;65.70;;;;;;5070719;28;20127;-62
2023/08/09 06:27:40;;;;;;;3.15;1.50;;;18.00;65.90;;;;;;5060235;28;20108;-61
2023/08/09 06:30:06;;;;;;;2.40;1.55;;;18.00;66.00;;;;;;5063834;28;20110;-62
2023/08/09 06:32:32;;;;;;;3.08;1.10;;;18.00;66.00;;;;;;5061428;28;20066;-62
2023/08/09 06:34:59;;;;;;;2.53;1.33;;;18.10;65.90;;;;;;5060024;28;20027;-62
2023/08/09 06:37:24;;;;;;;2.97;1.52;;;18.20;65.80;;;;;;5070460;28;20024;-63
2023/08/09 06:39:50;;;;;;;2.28;1.33;;;18.20;65.70;;;;;;5066010;28;21154;-62
2023/08/09 06:42:16;;;;;;;3.10;1.23;;;18.20;65.40;;;;;;5062810;28;20134;-62
2023/08/09 06:44:42;;;;;;;2.15;1.30;;;18.20;65.20;;;;;;5062724;28;20032;-62
2023/08/09 06:47:08;;;;;;;2.38;1.30;;;18.20;65.40;;;;;;5066274;28;20398;-62
2023/08/09 06:49:34;;;;;;;2.42;1.23;;;18.30;65.40;;;;;;5069015;28;20040;-64
2023/08/09 06:52:00;;;;;;;3.53;1.40;;;18.30;65.50;;;;;;5070675;28;20035;-63
2023/08/09 06:54:27;;;;;;;2.17;1.25;;;18.40;65.50;;;;;;5064482;28;20059;-63
2023/08/09 06:56:53;;;;;;;5.47;1.27;;;18.40;65.40;;;;;;5069305;28;20556;-63
2023/08/09 06:59:19;;;;;;;3.78;1.58;;;18.40;65.40;;;;;;5056477;28;20040;-63
2023/08/09 07:01:48;;;;;;;2.00;1.20;;;18.50;65.30;;;;;;5067152;28;20043;-64
2023/08/09 07:04:15;;;;;;;2.47;1.25;;;18.50;65.10;;;;;;5069110;28;20040;-63
2023/08/09 07:06:41;;;;;;;2.50;1.17;;;18.60;65.00;;;;;;5065339;28;20134;-63
2023/08/09 07:09:06;;;;;;;1.90;1.30;;;18.60;64.60;;;;;;5063403;28;20119;-63
2023/08/09 07:11:32;;;;;;;3.53;1.30;;;18.60;64.50;;;;;;5069003;28;20485;-64
2023/08/09 07:13:59;;;;;;;5.60;1.60;;;18.60;64.70;;;;;;5064624;28;20025;-64
2023/08/09 07:16:25;;;;;;;3.83;1.30;;;18.60;64.70;;;;;;5068989;28;20020;-64
2023/08/09 07:18:51;;;;;;;4.38;1.50;;;18.60;64.80;;;;;;5066983;28;20817;-62
2023/08/09 07:21:16;;;;;;;2.22;1.35;;;18.60;64.70;;;;;;5065472;28;20038;-63
2023/08/09 07:23:42;;;;;;;4.07;1.15;;;18.60;64.80;;;;;;5065542;28;20040;-64
2023/08/09 07:26:08;;;;;;;1.55;1.20;;;18.60;64.70;;;;;;5068247;28;20047;-62
2023/08/09 07:28:34;;;;;;;2.60;1.75;;;18.60;64.60;;;;;;5074181;28;20020;-62
2023/08/09 07:31:00;;;;;;;1.75;1.42;;;18.60;64.60;;;;;;5068237;28;20036;-62
2023/08/09 07:33:27;;;;;;;1.77;1.38;;;18.60;64.40;;;;;;5066892;28;20033;-63
2023/08/09 07:35:52;;;;;;;1.38;1.27;;;18.60;65.10;;;;;;5060395;28;20078;-63
2023/08/09 07:38:18;;;;;;;2.25;1.25;;;18.60;64.30;;;;;;5075811;28;20021;-62
2023/08/09 07:40:44;;;;;;;3.08;1.48;;;18.70;64.30;;;;;;5067340;28;20115;-64
2023/08/09 07:43:09;;;;;;;2.38;1.45;;;18.70;64.20;;;;;;5066601;28;20043;-64
2023/08/09 07:45:35;;;;;;;2.30;1.40;;;18.70;64.10;;;;;;5070485;28;20086;-63
2023/08/09 07:48:01;;;;;;;2.42;1.30;;;18.70;64.10;;;;;;5069295;28;20055;-64
2023/08/09 07:50:27;;;;;;;2.17;1.40;;;18.70;64.30;;;;;;5067043;28;20452;-63
2023/08/09 07:52:53;;;;;;;2.75;1.10;;;18.60;64.00;;;;;;5061266;28;20037;-62
2023/08/09 07:55:19;;;;;;;1.92;1.42;;;18.60;64.20;;;;;;5070694;28;20030;-63
2023/08/09 07:57:45;;;;;;;4.03;1.35;;;18.70;64.30;;;;;;5070388;28;20029;-64
2023/08/09 08:00:12;;;;;;;1.65;1.40;;;18.70;64.30;;;;;;5084952;28;20036;-64
2023/08/09 08:02:39;;;;;;;3.22;1.10;;;18.70;64.30;;;;;;5081064;28;20029;-64
2023/08/09 08:05:06;;;;;;;2.63;1.25;;;18.70;64.30;;;;;;5071623;28;20051;-64
2023/08/09 08:07:32;;;;;;;2.50;1.15;;;18.70;64.20;;;;;;5067797;28;20020;-64
2023/08/09 08:09:58;;;;;;;1.83;1.45;;;18.70;64.40;;;;;;5066786;28;20078;-63
2023/08/09 08:12:26;;;;;;;3.78;1.50;;;18.70;64.50;;;;;;5062646;28;20055;-63
2023/08/09 08:14:52;;;;;;;4.68;1.77;;;18.70;64.70;;;;;;5069023;28;20383;-62
2023/08/09 08:17:17;;;;;;;3.25;1.50;;;18.70;65.10;;;;;;5068769;28;20077;-62
2023/08/09 08:19:43;;;;;;;3.33;1.50;;;18.70;65.30;;;;;;5073399;28;20028;-63
2023/08/09 08:22:09;;;;;;;5.65;1.40;;;18.80;65.60;;;;;;5061622;28;20037;-62
2023/08/09 08:24:35;;;;;;;4.65;1.42;;;18.80;66.10;;;;;;5066918;28;20036;-62
2023/08/09 08:27:04;;;;;;;2.33;1.25;;;18.80;66.00;;;;;;5069585;28;20043;-63
2023/08/09 08:29:29;;;;;;;2.22;1.40;;;18.90;66.20;;;;;;5073964;28;20060;-62
2023/08/09 08:31:55;;;;;;;2.10;1.33;;;18.90;65.90;;;;;;5073959;28;20430;-63
2023/08/09 08:34:21;;;;;;;2.50;1.67;;;18.90;66.00;;;;;;5078926;28;20020;-64
2023/08/09 08:36:49;;;;;;;3.10;1.60;;;19.00;66.30;;;;;;5073984;28;20039;-62
2023/08/09 08:39:16;;;;;;;4.57;1.40;;;19.00;66.00;;;;;;5061886;28;20039;-62
2023/08/09 08:41:42;;;;;;;5.72;1.52;;;19.10;66.00;;;;;;5064513;28;20087;-63
2023/08/09 08:44:11;;;;;;;3.05;1.40;;;19.10;66.30;;;;;;5067080;28;20040;-62
2023/08/09 08:46:37;;;;;;;4.30;1.45;;;19.10;66.30;;;;;;5068136;28;20040;-63
2023/08/09 08:49:04;;;;;;;2.88;1.80;;;19.20;66.60;;;;;;5073176;28;20032;-63
2023/08/09 08:51:32;;;;;;;2.88;1.45;;;19.30;66.60;;;;;;5072698;28;20029;-62
2023/08/09 08:53:59;;;;;;;3.25;1.60;;;19.30;66.50;;;;;;5063259;28;20017;-62
2023/08/09 08:56:25;;;;;;;4.00;1.60;;;19.40;66.20;;;;;;5068202;28;20089;-63
2023/08/09 08:58:51;;;;;;;2.70;1.55;;;19.60;66.10;;;;;;5072406;28;20028;-63
2023/08/09 09:01:18;;;;;;;3.63;1.65;;;19.60;66.10;;;;;;5067620;28;20107;-63
2023/08/09 09:03:44;;;;;;;2.85;1.40;;;19.70;65.80;;;;;;5064051;28;20024;-63
2023/08/09 09:06:10;;;;;;;5.10;1.45;;;19.70;66.40;;;;;;5060589;28;20113;-62
2023/08/09 09:08:44;;;;;;;5.32;1.30;;;19.90;66.00;;;;;;5058620;28;20041;-63
2023/08/09 09:11:18;;;;;;;2.63;1.05;;;19.90;65.80;;;;;;5065916;28;20037;-63
2023/08/09 09:13:47;;;;;;;2.28;1.30;;;20.10;65.50;;;;;;5073506;28;20036;-63
2023/08/09 09:16:14;;;;;;;5.70;1.40;;;20.20;64.90;;;;;;5071404;28;20024;-64
2023/08/09 09:18:42;;;;;;;2.97;1.48;;;20.30;64.50;;;;;;5061007;28;20028;-64
2023/08/09 09:21:09;;;;;;;2.38;1.25;;;20.40;64.10;;;;;;5066514;28;20035;-63
2023/08/09 09:23:36;;;;;;;1.85;1.38;;;20.40;63.70;;;;;;5069174;28;20027;-62
2023/08/09 09:26:17;;;;;;;1.80;1.30;;;20.40;63.70;;;;;;5073342;28;20032;-62
2023/08/09 09:28:45;;;;;;;2.25;1.45;;;20.40;64.50;;;;;;5063159;28;20479;-62
2023/08/09 09:31:17;;;;;;;1.45;1.10;;;20.40;63.80;;;;;;5053546;28;20035;-62
2023/08/09 09:33:52;;;;;;;3.90;1.42;;;20.40;63.90;;;;;;5062338;28;20060;-62
2023/08/09 09:36:18;;;;;;;3.15;1.40;;;20.50;64.30;;;;;;5061257;28;20999;-62
2023/08/09 09:38:45;;;;;;;2.30;1.15;;;20.60;63.70;;;;;;5066020;28;20032;-62
2023/08/09 09:41:11;;;;;;;2.47;1.27;;;20.60;64.30;;;;;;5066707;28;20479;-62
2023/08/09 09:43:39;;;;;;;2.83;1.40;;;20.50;63.80;;;;;;5065371;28;20048;-62
2023/08/09 09:46:20;;;;;;;2.50;1.30;;;20.60;64.00;;;;;;5059113;28;20036;-63
2023/08/09 09:48:57;;;;;;;3.70;1.60;;;20.60;63.90;;;;;;5064080;28;20044;-63
2023/08/09 09:51:24;;;;;;;1.98;1.30;;;20.70;64.00;;;;;;5062628;28;20024;-63
2023/08/09 09:53:50;;;;;;;2.65;1.50;;;20.70;63.60;;;;;;5070039;28;20055;-63
2023/08/09 09:56:16;;;;;;;8.68;3.47;;;20.70;63.50;;;;;;5072432;28;20056;-63
2023/08/09 09:58:41;;;;;;;3.35;1.88;;;20.80;63.70;;;;;;5066108;28;20033;-63
2023/08/09 10:01:09;;;;;;;3.30;1.52;;;20.80;63.10;;;;;;5069199;28;20024;-64
2023/08/09 10:03:38;;;;;;;6.82;1.42;;;20.80;62.20;;;;;;5068864;28;20024;-64
2023/08/09 10:06:08;;;;;;;1.90;1.10;;;20.80;61.60;;;;;;5073009;28;20028;-63
2023/08/09 10:08:37;;;;;;;2.28;1.10;;;20.80;61.20;;;;;;5063684;28;20051;-63
2023/08/09 10:11:04;;;;;;;2.95;1.40;;;20.90;60.90;;;;;;5063378;28;20123;-63
2023/08/09 10:13:32;;;;;;;4.90;1.40;;;20.90;60.20;;;;;;5067122;28;20459;-63
2023/08/09 10:16:02;;;;;;;4.32;1.23;;;20.90;60.00;;;;;;5068126;28;20078;-64
2023/08/09 10:18:38;;;;;;;6.40;1.30;;;20.90;59.70;;;;;;5066712;28;20044;-64
2023/08/09 10:21:05;;;;;;;2.63;1.20;;;20.90;59.80;;;;;;5063549;28;20036;-63
2023/08/09 10:23:31;;;;;;;2.35;1.20;;;21.00;59.80;;;;;;5058262;28;20075;-64
2023/08/09 10:25:58;;;;;;;2.22;1.10;;;21.00;59.50;;;;;;5068861;28;20028;-63
2023/08/09 10:28:40;;;;;;;2.13;1.08;;;21.00;59.40;;;;;;4999760;28;20077;-63
2023/08/09 10:31:06;;;;;;;5.30;1.25;;;21.00;58.90;;;;;;5063330;28;20063;-63
2023/08/09 10:33:32;;;;;;;2.22;1.10;;;21.10;59.30;;;;;;5065567;28;20056;-63
2023/08/09 10:35:58;;;;;;;2.55;1.13;;;21.10;59.50;;;;;;5063050;28;20032;-63
2023/08/09 10:38:32;;;;;;;2.70;1.27;;;21.20;59.20;;;;;;5071693;28;20042;-63
2023/08/09 10:40:59;;;;;;;2.85;1.10;;;21.20;58.70;;;;;;5068189;28;20035;-62
2023/08/09 10:43:29;;;;;;;4.35;1.55;;;21.30;59.00;;;;;;5066591;28;20032;-63
2023/08/09 10:45:56;;;;;;;1.90;1.30;;;21.40;59.10;;;;;;5065620;28;20036;-64
2023/08/09 10:48:23;;;;;;;2.33;1.30;;;21.50;59.30;;;;;;5066553;28;20033;-63
2023/08/09 10:51:10;;;;;;;5.53;1.35;;;21.70;58.90;;;;;;5066643;28;20051;-62
2023/08/09 10:54:04;;;;;;;2.22;1.20;;;21.80;58.00;;;;;;5058652;28;20032;-62
2023/08/09 10:56:42;;;;;;;2.05;1.27;;;21.90;57.50;;;;;;5062514;28;20487;-62
2023/08/09 10:59:12;;;;;;;2.65;1.48;;;22.00;57.20;;;;;;5062793;28;20032;-62
2023/08/09 11:01:40;;;;;;;2.42;1.30;;;22.00;57.70;;;;;;5059165;28;20024;-63
2023/08/09 11:04:10;;;;;;;3.33;1.30;;;22.00;57.30;;;;;;5066697;28;20115;-63
2023/08/09 11:06:37;;;;;;;2.47;1.30;;;22.00;57.10;;;;;;5062980;28;20025;-63
2023/08/09 11:09:11;;;;;;;5.60;1.40;;;22.00;57.20;;;;;;5064549;28;20047;-63
2023/08/09 11:11:42;;;;;;;3.08;1.42;;;22.00;56.90;;;;;;5070167;28;20053;-64
2023/08/09 11:14:10;;;;;;;3.55;1.35;;;22.00;57.10;;;;;;5077404;28;20045;-64
2023/08/09 11:16:36;;;;;;;2.67;1.30;;;21.90;57.10;;;;;;5075021;28;20036;-62
2023/08/09 11:19:07;;;;;;;4.68;2.00;;;21.90;57.10;;;;;;5076364;28;20545;-63
2023/08/09 11:21:52;;;;;;;6.07;1.50;;;21.90;57.00;;;;;;5073030;28;20078;-64
2023/08/09 11:24:21;;;;;;;4.05;1.48;;;21.90;57.30;;;;;;5068393;28;20033;-63
2023/08/09 11:27:00;;;;;;;3.67;1.30;;;21.80;57.50;;;;;;5064024;28;20854;-62
2023/08/09 11:29:27;;;;;;;2.55;1.35;;;21.80;57.80;;;;;;5060234;28;20060;-63
2023/08/09 11:31:58;;;;;;;3.15;1.50;;;21.80;57.80;;;;;;5058037;28;20032;-62
2023/08/09 11:34:25;;;;;;;2.55;1.30;;;21.70;58.20;;;;;;5063198;28;20020;-63
2023/08/09 11:36:53;;;;;;;3.17;1.50;;;21.70;58.50;;;;;;5062665;28;20036;-64
2023/08/09 11:39:21;;;;;;;4.57;1.90;;;21.60;58.70;;;;;;5070958;28;21350;-63
2023/08/09 11:41:55;;;;;;;4.10;1.35;;;21.60;59.20;;;;;;5064822;28;20028;-63
2023/08/09 11:44:34;;;;;;;3.10;1.40;;;21.60;59.60;;;;;;5060124;28;20111;-64
2023/08/09 11:47:01;;;;;;;3.63;1.70;;;21.50;59.80;;;;;;5052031;28;20032;-63
2023/08/09 11:49:31;;;;;;;2.63;1.67;;;21.50;59.50;;;;;;5063611;28;20391;-63
2023/08/09 11:52:00;;;;;;;2.90;1.30;;;21.50;59.60;;;;;;5064899;28;20017;-64
2023/08/09 11:54:26;;;;;;;6.80;1.63;;;21.50;59.60;;;;;;5066575;28;20032;-63
2023/08/09 11:56:52;;;;;;;1.38;1.27;;;21.50;59.80;;;;;;5080446;28;20032;-64
2023/08/09 11:59:21;;;;;;;2.72;1.25;;;21.60;60.20;;;;;;5065852;28;20088;-63
2023/08/09 12:01:52;;;;;;;5.45;1.40;;;21.60;59.80;;;;;;5062068;28;20062;-64
2023/08/09 12:04:22;;;;;;;3.17;1.60;;;21.80;60.40;;;;;;5074876;28;20032;-64
2023/08/09 12:06:50;;;;;;;5.47;1.65;;;21.90;59.80;;;;;;5060478;28;20029;-64
2023/08/09 12:09:37;;;;;;;3.20;1.45;;;22.10;59.90;;;;;;5072996;28;20106;-64
2023/08/09 12:12:13;;;;;;;2.20;1.48;;;22.30;59.50;;;;;;5056413;28;20088;-62
2023/08/09 12:14:40;;;;;;;5.80;1.52;;;22.40;58.30;;;;;;5068988;28;20028;-63
2023/08/09 12:17:07;;;;;;;2.78;1.23;;;22.50;58.00;;;;;;5057913;28;20044;-63
2023/08/09 12:19:34;;;;;;;4.78;1.50;;;22.50;57.80;;;;;;5059237;28;20104;-64
2023/08/09 12:22:01;;;;;;;2.75;1.23;;;22.50;57.80;;;;;;5060588;28;20031;-62
2023/08/09 12:24:27;;;;;;;2.88;1.17;;;22.50;57.20;;;;;;5074743;28;20031;-62
2023/08/09 12:26:53;;;;;;;3.78;1.42;;;22.40;57.40;;;;;;5064545;28;20382;-60
2023/08/09 12:29:19;;;;;;;4.15;1.70;;;22.40;57.20;;;;;;4959212;28;20476;-61
2023/08/09 12:31:45;;;;;;;4.40;1.52;;;22.40;57.40;;;;;;5064009;28;20033;-61
2023/08/09 12:34:12;;;;;;;4.97;1.45;;;22.50;57.60;;;;;;5069465;28;20056;-61
2023/08/09 12:36:39;;;;;;;5.10;1.70;;;22.50;57.60;;;;;;5073752;28;20055;-62
2023/08/09 12:39:10;;;;;;;4.85;1.70;;;22.60;57.80;;;;;;5070366;28;20417;-62
2023/08/09 12:41:36;;;;;;;2.85;1.40;;;22.70;56.80;;;;;;5063473;28;20075;-63
2023/08/09 12:44:02;;;;;;;2.78;1.10;;;22.70;56.60;;;;;;5061962;28;20056;-63
2023/08/09 12:46:28;;;;;;;2.08;1.33;;;22.70;56.70;;;;;;5064105;28;20065;-65
2023/08/09 12:48:53;;;;;;;5.93;1.67;;;22.70;56.30;;;;;;5064242;28;20055;-64